• Join FlightAware (Why Join?)
  • Login
  • US Flag 
07:05AM EDT


 

Airport Tracker/Info


-or-


 

Live Flight TrackerFlight Track Log ✈ SWA2383 ✈ 22-Nov-2013 ✈ KRSW - KSTL

Flight Track Log - Related Links

Times and Time Zones

All times are in EST time to prevent confusion due to time zone crossing. See the SWA2383 flight status page for this flight to view local times or setup timezone preferences in your user account.

Time Position Orientation Groundspeed Altitude Reporting Facility
EST Latitude Longitude Course Direction KTS MPH feet Rate Location/Type
10:57AM 26.6661 -81.7056 339° North 275 316 5,600  Level Miami Center
10:58AM 26.7411 -81.7133 355° North 280 322 8,400 1,860 Climbing Miami Center
10:59AM 26.8172 -81.7442 340° North 280 322 9,400 1,080 Climbing Miami Center
11:00AM 26.9028 -81.7456 359° North 285 328 10,600 1,800 Climbing Miami Center
11:01AM 27.0775 -82.0851 339° North  Level Estimated
11:01AM 27.0125 -81.7733 347° North 331 381 13,000  Level Miami Center
11:02AM 27.1056 -81.7961 348° North 361 415 15,200 1,920 Climbing Miami Center
11:03AM 27.2092 -81.8214 348° North 374 430 16,900 1,500 Climbing Miami Center
11:04AM 27.3250 -81.8522 347° North 385 443 18,200 1,860 Climbing Miami Center
11:05AM 27.4367 -81.8781 348° North 393 452 20,700 1,860 Climbing Miami Center
11:06AM 27.5525 -81.9067 348° North 410 472 22,000 1,500 Climbing Miami Center
11:07AM 27.6664 -81.9350 348° North 415 478 23,700 1,380 Climbing Miami Center
11:09AM 27.9611 -82.0092 347° North 442 509 26,800 1,380 Climbing Jacksonville Center
11:10AM 28.0661 -82.0833 328° Northwest 436 502 28,600 1,620 Climbing Jacksonville Center
11:11AM 28.1561 -82.1653 321° Northwest 430 495 30,100 1,260 Climbing Jacksonville Center
11:12AM 28.2608 -82.2208 335° Northwest 417 480 31,200 1,140 Climbing Jacksonville Center
11:13AM 28.3758 -82.2533 346° North 406 467 32,400 1,080 Climbing Jacksonville Center
11:14AM 28.4886 -82.2856 346° North 411 473 33,400 780 Climbing Jacksonville Center
11:15AM 28.5808 -82.3583 325° Northwest 405 466 34,000 300 Climbing Jacksonville Center
11:16AM 28.6750 -82.4289 327° Northwest 405 466 34,000  Level Jacksonville Center
11:17AM 28.7650 -82.5017 325° Northwest 400 460 34,000  Level Jacksonville Center
11:18AM 28.8592 -82.5725 327° Northwest 407 468 34,000  Level Jacksonville Center
11:19AM 28.9531 -82.6481 325° Northwest 407 468 34,000  Level Jacksonville Center
11:20AM 29.0472 -82.7239 325° Northwest 407 468 34,000  Level Jacksonville Center
11:21AM 29.1411 -82.7950 327° Northwest 407 468 34,000  Level Jacksonville Center
11:22AM 29.2331 -82.8711 324° Northwest 407 468 34,000  Level Jacksonville Center
11:23AM 29.3269 -82.9450 326° Northwest 407 468 34,000  Level Jacksonville Center
11:24AM 29.4231 -83.0167 327° Northwest 407 468 34,000  Level Jacksonville Center
11:25AM 29.5147 -83.0858 327° Northwest 416 479 34,000  Level Jacksonville Center
11:26AM 29.6086 -83.1578 326° Northwest 421 484 34,000  Level Jacksonville Center
11:27AM 29.7044 -83.2297 327° Northwest 416 479 34,000  Level Jacksonville Center
11:28AM 29.8003 -83.3042 326° Northwest 416 479 34,000  Level Jacksonville Center
11:29AM 29.8961 -83.3767 327° Northwest 416 479 34,000  Level Jacksonville Center
11:30AM 29.9917 -83.4489 327° Northwest 421 484 34,000  Level Jacksonville Center
11:31AM 30.0894 -83.5214 327° Northwest 421 484 34,000  Level Jacksonville Center
11:32AM 30.1853 -83.5942 327° Northwest 421 484 34,000  Level Jacksonville Center
11:33AM 30.2808 -83.6694 326° Northwest 421 484 34,000  Level Jacksonville Center
11:34AM 30.3764 -83.7425 327° Northwest 421 484 34,000  Level Jacksonville Center
11:35AM 30.4742 -83.8181 326° Northwest 421 484 34,000  Level Jacksonville Center
11:36AM 30.5675 -83.8939 325° Northwest 421 484 34,000  Level Jacksonville Center
11:37AM 30.6650 -83.9672 327° Northwest 416 479 34,000  Level Jacksonville Center
11:38AM 30.7603 -84.0433 326° Northwest 416 479 34,000  Level Jacksonville Center
11:39AM 30.8556 -84.1169 326° Northwest 422 486 34,000  Level Jacksonville Center
11:40AM 30.9531 -84.1933 326° Northwest 417 480 34,000  Level Jacksonville Center
11:41AM 31.0461 -84.2675 326° Northwest 417 480 34,000  Level Jacksonville Center
11:42AM 31.1436 -84.3442 326° Northwest 417 480 34,000  Level Jacksonville Center
11:44AM 31.2972 -84.4642 326° Northwest 420 483 34,000  Level Atlanta Center
11:45AM 31.3908 -84.5400 325° Northwest 415 478 34,000  Level Atlanta Center
11:46AM 31.4844 -84.6161 325° Northwest 415 478 34,000  Level Atlanta Center
11:47AM 31.5781 -84.6872 327° Northwest 415 478 34,000  Level Atlanta Center
11:48AM 31.6714 -84.7636 325° Northwest 415 478 34,000  Level Atlanta Center
11:49AM 31.7669 -84.8400 326° Northwest 415 478 34,000  Level Atlanta Center
11:50AM 31.8603 -84.9142 326° Northwest 415 478 34,000  Level Atlanta Center
11:51AM 31.9558 -84.9886 327° Northwest 415 478 34,000  Level Atlanta Center
11:52AM 32.0492 -85.0631 326° Northwest 415 478 34,000  Level Atlanta Center
11:53AM 32.1403 -85.1403 324° Northwest 415 478 34,000  Level Atlanta Center
11:54AM 32.2358 -85.2125 327° Northwest 410 472 34,000  Level Atlanta Center
11:55AM 32.3247 -85.2900 324° Northwest 404 465 34,000  Level Atlanta Center
11:56AM 32.4261 -85.3750 325° Northwest 404 465 34,000  Level Atlanta Center
11:57AM 32.5172 -85.4478 326° Northwest 404 465 34,000  Level Atlanta Center
11:58AM 32.6164 -85.5283 326° Northwest 422 486 34,000  Level Atlanta Center
11:59AM 32.7072 -85.6039 325° Northwest 412 474 34,000  Level Atlanta Center
12:00PM 32.7981 -85.6797 325° Northwest 407 468 34,000  Level Atlanta Center
12:01PM 32.8786 -85.7456 326° Northwest 401 461 34,000  Level Atlanta Center
12:02PM 32.9694 -85.8167 327° Northwest 401 461 34,000  Level Atlanta Center
12:03PM 33.0622 -85.8953 325° Northwest 401 461 34,000  Level Atlanta Center
12:04PM 33.1550 -85.9692 326° Northwest 401 461 34,000  Level Atlanta Center
12:05PM 33.2478 -86.0483 324° Northwest 406 467 34,000  Level Atlanta Center
12:06PM 33.3425 -86.1275 325° Northwest 396 456 34,000  Level Atlanta Center
12:07PM 33.4350 -86.2019 326° Northwest 389 448 34,000  Level Atlanta Center
12:08PM 33.5256 -86.2789 325° Northwest 394 453 34,000  Level Atlanta Center
12:09PM 33.6161 -86.3536 326° Northwest 394 453 34,000  Level Atlanta Center
12:10PM 33.7083 -86.4311 325° Northwest 394 453 34,000  Level Atlanta Center
12:11PM 33.8028 -86.5086 326° Northwest 399 459 34,000  Level Atlanta Center
12:12PM 33.8931 -86.5889 324° Northwest 404 465 34,000  Level Atlanta Center
12:13PM 33.9853 -86.6667 325° Northwest 404 465 34,000  Level Atlanta Center
12:14PM 34.0756 -86.7422 325° Northwest 404 465 34,000  Level Atlanta Center
12:15PM 34.1678 -86.8231 324° Northwest 404 465 34,000  Level Atlanta Center
12:16PM 34.2972 -86.9336 325° Northwest 407 468 34,000  Level Memphis Center
12:17PM 34.3892 -87.0131 325° Northwest 408 470 34,000  Level Memphis Center
12:18PM 34.4867 -87.0808 330° Northwest 412 474 34,000  Level Memphis Center
12:19PM 34.5903 -87.1386 335° Northwest 413 475 34,000  Level Memphis Center
12:20PM 34.6942 -87.1953 336° Northwest 413 475 34,000  Level Memphis Center
12:21PM 34.8067 -87.2861 326° Northwest 409 471 34,000  Level Memphis Center
12:22PM 34.8969 -87.3683 323° Northwest 408 470 34,000  Level Memphis Center
12:23PM 34.9878 -87.4506 323° Northwest 409 471 34,000  Level Memphis Center
12:24PM 35.0789 -87.5333 323° Northwest 409 471 34,000  Level Memphis Center
12:26PM 35.1692 -87.6178 323° Northwest 411 473 34,000  Level Memphis Center
12:27PM 35.2789 -87.7186 323° Northwest 412 474 34,000  Level Memphis Center
12:28PM 35.3697 -87.8031 323° Northwest 411 473 34,000  Level Memphis Center
12:29PM 35.4644 -87.8908 323° Northwest 416 479 34,000  Level Memphis Center
12:30PM 35.5569 -87.9761 323° Northwest 414 476 34,000  Level Memphis Center
12:31PM 35.6508 -88.0628 323° Northwest 415 478 34,000  Level Memphis Center
12:32PM 35.7397 -88.1475 322° Northwest 414 476 34,000  Level Memphis Center
12:33PM 35.8322 -88.2331 323° Northwest 415 478 34,000  Level Memphis Center
12:34PM 35.9231 -88.3186 323° Northwest 413 475 34,000  Level Memphis Center
12:35PM 36.0344 -88.4222 323° Northwest 416 479 34,000  Level Memphis Center
12:36PM 36.1253 -88.5083 323° Northwest 414 476 34,000  Level Memphis Center
12:37PM 36.2161 -88.5950 322° Northwest 413 475 34,000  Level Memphis Center
12:38PM 36.3083 -88.6822 323° Northwest 416 479 34,000  Level Memphis Center
12:39PM 36.4003 -88.7694 323° Northwest 417 480 34,000  Level Memphis Center
12:40PM 36.4919 -88.8578 322° Northwest 419 482 34,000 -540 Level Memphis Center
12:41PM 36.6014 -88.9633 322° Northwest 419 482 33,000 -1,380 Descending Memphis Center
12:42PM 36.6878 -89.0467 322° Northwest 404 465 31,200 -1,260 Descending Memphis Center
12:43PM 36.7769 -89.1317 323° Northwest 404 465 30,400 -900 Descending Memphis Center
12:44PM 36.8678 -89.2200 322° Northwest 412 474 29,400 -1,020 Descending Memphis Center
12:45PM 36.9575 -89.3075 322° Northwest 413 475 28,400 -1,080 Descending Memphis Center
12:46PM 37.0614 -89.4094 322° Northwest 400 460 27,200 -1,080 Descending Memphis Center
12:47PM 37.1450 -89.4922 322° Northwest 389 448 26,200 -600 Descending Memphis Center
12:48PM 37.2286 -89.5733 322° Northwest 382 440 26,000 -120 Descending Memphis Center
12:49PM 37.3303 -89.6300 336° Northwest 399 459 26,000  Level Memphis Center
12:50PM 37.4342 -89.6847 337° Northwest 402 463 26,000 -60 Level Memphis Center
12:51PM 37.5375 -89.7417 336° Northwest 405 466 25,900 -1,080 Descending Memphis Center
12:52PM 37.6344 -89.7939 337° Northwest 385 443 23,900 -2,280 Descending Memphis Center
12:53PM 37.7436 -89.8539 337° Northwest 359 413 21,300 -2,280 Descending Memphis Center
12:54PM 37.8297 -89.9025 336° Northwest 346 398 19,200 -1,800 Descending Memphis Center
12:55PM 37.9128 -89.9478 337° Northwest 329 379 17,700 -2,040 Descending Memphis Center
12:56PM 38.0000 -90.0000 335° Northwest 371 427 15,400 -2,580 Descending Gateway (St. Louis) TRACON
12:57PM 38.0458 -90.0217 340° North 368 423 14,100 -2,280 Descending Kansas City Center
12:58PM 38.1392 -90.0728 337° Northwest 355 409 11,800 -1,920 Descending Kansas City Center
12:59PM 38.2342 -90.0806 356° North 345 397 10,200 -1,200 Descending Kansas City Center
01:00PM 38.3156 -90.0969 351° North 308 354 9,400 -1,080 Descending Kansas City Center
01:01PM 38.3900 -90.1161 349° North 281 323 8,000 -1,500 Descending Kansas City Center
01:02PM 38.4631 -90.1342 349° North 274 315 6,400 -1,680 Descending Kansas City Center
01:03PM 38.5467 -90.1547 349° North 264 304 4,600 -1,380 Descending Kansas City Center
01:04PM 38.6086 -90.1692 350° North 245 282 3,600 -720 Descending Kansas City Center
01:05PM 38.6592 -90.1928 340° North 219 252 3,200 -540 Descending Kansas City Center
01:06PM 38.6908 -90.2422 309° West 195 224 2,500 -780 Descending Kansas City Center
01:07PM 38.7133 -90.2886 302° West 171 197 1,700 -840 Descending Kansas City Center
01:08PM 38.7367 -90.3356 303° West 145 167 800 -540 Descending Kansas City Center
01:09PM 38.7561 -90.3756 302° West 143 165 600 -240 Descending Kansas City Center